Time;durP1;ratioP1;P1;durP2;ratioP2;P2;SDS_P1;SDS_P2;PMS_P1;PMS_P2;Temp;Humidity;BMP_temperature;BMP_pressure;BME280_temperature;BME280_humidity;BME280_pressure;Samples;Min_cycle;Max_cycle;Signal;HPM_P1;HPM_P2
2023/07/20 00:00:01;;;;;;;2.80;2.60;;;16.20;99.90;;;;;;5033304;28;21014;-71
2023/07/20 00:02:46;;;;;;;3.10;2.90;;;16.20;99.90;;;;;;5032055;28;20919;-72
2023/07/20 00:05:18;;;;;;;3.40;2.37;;;16.20;99.90;;;;;;5031892;28;21034;-71
2023/07/20 00:07:46;;;;;;;3.13;2.83;;;16.20;99.90;;;;;;5033800;28;20432;-72
2023/07/20 00:10:14;;;;;;;4.10;3.00;;;16.20;99.90;;;;;;5032957;28;20490;-72
2023/07/20 00:12:47;;;;;;;2.73;2.53;;;16.20;99.90;;;;;;5031861;28;20445;-71
2023/07/20 00:15:17;;;;;;;3.17;2.87;;;16.20;99.90;;;;;;5031861;28;20501;-71
2023/07/20 00:17:45;;;;;;;4.70;3.30;;;16.10;99.90;;;;;;5033040;28;20929;-71
2023/07/20 00:20:13;;;;;;;3.17;2.90;;;16.10;99.90;;;;;;5032990;28;20497;-72
2023/07/20 00:22:41;;;;;;;3.10;2.90;;;16.10;99.90;;;;;;5033379;28;20449;-72
2023/07/20 00:25:11;;;;;;;5.23;2.90;;;16.10;99.90;;;;;;5033215;28;20446;-71
2023/07/20 00:27:39;;;;;;;4.77;3.00;;;16.10;99.90;;;;;;5033587;28;20402;-72
2023/07/20 00:30:09;;;;;;;3.97;3.57;;;16.00;99.90;;;;;;5031544;28;20453;-71
2023/07/20 00:32:38;;;;;;;3.90;3.60;;;16.00;99.90;;;;;;5031660;28;20447;-72
2023/07/20 00:35:07;;;;;;;4.20;3.83;;;16.00;99.90;;;;;;5032963;28;20500;-72
2023/07/20 00:37:35;;;;;;;3.90;3.60;;;15.90;99.90;;;;;;5031642;28;20476;-72
2023/07/20 00:40:04;;;;;;;4.43;3.67;;;15.90;99.90;;;;;;5031589;28;20434;-72
2023/07/20 00:42:32;;;;;;;3.90;3.57;;;15.90;99.90;;;;;;5031592;28;20989;-71
2023/07/20 00:45:01;;;;;;;3.80;3.50;;;15.90;99.90;;;;;;5031549;28;20463;-71
2023/07/20 00:47:29;;;;;;;3.77;3.47;;;15.90;99.90;;;;;;5033014;28;20444;-71
2023/07/20 00:50:01;;;;;;;4.13;3.77;;;15.90;99.90;;;;;;5031354;28;20476;-71
2023/07/20 00:52:32;;;;;;;4.73;3.50;;;15.80;99.90;;;;;;5034003;28;20439;-71
2023/07/20 00:55:01;;;;;;;6.03;4.07;;;15.80;99.90;;;;;;5035153;28;20553;-72
2023/07/20 00:57:31;;;;;;;3.53;3.23;;;15.80;99.90;;;;;;5036919;28;20505;-72
2023/07/20 01:00:00;;;;;;;3.60;3.30;;;15.80;99.90;;;;;;5034929;28;20445;-72
2023/07/20 01:02:28;;;;;;;3.77;3.37;;;15.80;99.90;;;;;;5035349;28;20858;-72
2023/07/20 01:04:57;;;;;;;4.97;3.33;;;15.80;99.90;;;;;;5034921;28;20417;-73
2023/07/20 01:07:31;;;;;;;3.37;3.07;;;15.70;99.90;;;;;;5034944;28;20493;-72
2023/07/20 01:10:07;;;;;;;3.83;3.43;;;15.70;99.90;;;;;;5034646;28;20486;-73
2023/07/20 01:12:42;;;;;;;3.33;3.03;;;15.70;99.90;;;;;;5034853;28;20583;-73
2023/07/20 01:15:12;;;;;;;3.20;3.00;;;15.70;99.90;;;;;;5034800;28;20417;-73
2023/07/20 01:17:40;;;;;;;3.03;2.83;;;15.70;99.90;;;;;;5034747;28;20422;-73
2023/07/20 01:20:13;;;;;;;3.70;3.40;;;15.70;99.90;;;;;;5034617;28;20879;-72
2023/07/20 01:23:23;;;;;;;2.83;2.63;;;15.70;99.90;;;;;;5034743;28;20437;-72
2023/07/20 01:26:09;;;;;;;3.50;3.20;;;15.70;99.90;;;;;;5034623;28;20846;-72
2023/07/20 01:29:13;;;;;;;3.17;2.97;;;15.60;99.90;;;;;;5034538;28;20431;-72
2023/07/20 01:31:43;;;;;;;2.67;2.47;;;15.60;99.90;;;;;;5035903;28;20473;-72
2023/07/20 01:34:16;;;;;;;2.93;2.73;;;15.60;99.90;;;;;;5034508;28;20440;-72
2023/07/20 01:36:46;;;;;;;2.90;2.70;;;15.60;99.90;;;;;;5035807;28;20409;-72
2023/07/20 01:39:14;;;;;;;2.77;2.53;;;15.60;99.90;;;;;;5035626;28;20473;-72
2023/07/20 01:41:43;;;;;;;3.07;2.73;;;15.60;99.90;;;;;;5034273;28;20455;-73
2023/07/20 01:44:12;;;;;;;2.57;2.37;;;15.60;99.90;;;;;;5035459;28;20949;-72
2023/07/20 01:46:40;;;;;;;3.20;2.90;;;15.60;99.90;;;;;;5035467;28;20467;-73
2023/07/20 01:49:09;;;;;;;2.90;2.47;;;15.60;99.90;;;;;;5034188;28;20414;-73
2023/07/20 01:51:38;;;;;;;2.50;2.30;;;15.60;99.90;;;;;;5035222;28;20470;-72
2023/07/20 01:54:06;;;;;;;3.00;2.80;;;15.60;99.90;;;;;;5035721;28;20442;-73
2023/07/20 01:56:34;;;;;;;3.37;2.90;;;15.60;99.90;;;;;;5035306;28;20435;-72
2023/07/20 01:59:02;;;;;;;3.10;2.80;;;15.60;99.90;;;;;;5034275;28;20832;-72
2023/07/20 02:01:30;;;;;;;3.43;3.23;;;15.60;99.90;;;;;;5035145;28;20524;-72
2023/07/20 02:03:59;;;;;;;3.97;3.67;;;15.60;99.90;;;;;;5034770;28;20409;-73
2023/07/20 02:06:28;;;;;;;3.40;3.20;;;15.60;99.90;;;;;;5035433;28;20474;-72
2023/07/20 02:08:56;;;;;;;3.80;3.50;;;15.60;99.90;;;;;;5033830;28;20524;-72
2023/07/20 02:11:24;;;;;;;3.13;2.80;;;15.60;99.90;;;;;;5033560;28;20560;-72
2023/07/20 02:13:53;;;;;;;2.70;2.50;;;15.60;99.90;;;;;;5033766;28;20414;-73
2023/07/20 02:16:21;;;;;;;2.80;2.60;;;15.50;99.90;;;;;;5034931;28;20435;-72
2023/07/20 02:18:49;;;;;;;2.47;2.27;;;15.50;99.90;;;;;;5033721;28;20443;-72
2023/07/20 02:21:18;;;;;;;4.43;2.43;;;15.50;99.90;;;;;;5033538;28;20536;-73
2023/07/20 02:23:47;;;;;;;2.67;2.47;;;15.50;99.90;;;;;;5035320;28;20493;-72
2023/07/20 02:26:16;;;;;;;2.50;2.30;;;15.50;99.90;;;;;;5033569;28;20468;-72
2023/07/20 02:28:44;;;;;;;2.50;2.30;;;15.50;99.90;;;;;;5033368;28;20429;-72
2023/07/20 02:31:13;;;;;;;2.40;2.20;;;15.50;99.90;;;;;;5033257;28;20548;-72
2023/07/20 02:33:41;;;;;;;2.87;2.20;;;15.50;99.90;;;;;;5034845;28;20497;-72
2023/07/20 02:36:09;;;;;;;2.60;2.40;;;15.50;99.90;;;;;;5033275;28;20493;-73
2023/07/20 02:38:37;;;;;;;2.40;2.20;;;15.50;99.90;;;;;;5033361;28;20505;-72
2023/07/20 02:41:07;;;;;;;2.33;2.13;;;15.50;99.90;;;;;;5033075;28;20901;-73
2023/07/20 02:43:35;;;;;;;2.53;2.30;;;15.50;99.90;;;;;;5034402;28;20449;-72
2023/07/20 02:46:04;;;;;;;3.13;2.47;;;15.50;99.90;;;;;;5034440;28;20476;-72
2023/07/20 02:48:33;;;;;;;2.97;2.77;;;15.50;99.90;;;;;;5033080;28;20422;-72
2023/07/20 02:51:01;;;;;;;3.67;2.80;;;15.50;99.90;;;;;;5034175;28;20473;-72
2023/07/20 02:53:29;;;;;;;3.93;3.20;;;15.50;99.90;;;;;;5034194;28;20808;-72
2023/07/20 02:55:57;;;;;;;2.97;2.77;;;15.50;99.90;;;;;;5032888;28;20803;-72
2023/07/20 02:58:27;;;;;;;3.80;3.50;;;15.60;99.90;;;;;;5034656;28;20406;-72
2023/07/20 03:00:55;;;;;;;3.57;3.30;;;15.60;99.90;;;;;;5032730;28;20474;-72
2023/07/20 03:03:23;;;;;;;3.77;3.53;;;15.60;99.90;;;;;;5032865;28;20529;-72
2023/07/20 03:05:54;;;;;;;3.73;3.23;;;15.50;99.90;;;;;;5032750;28;20450;-72
2023/07/20 03:08:22;;;;;;;3.40;3.20;;;15.50;99.90;;;;;;5034314;28;20411;-72
2023/07/20 03:10:51;;;;;;;3.67;3.37;;;15.50;99.90;;;;;;5032395;28;20485;-72
2023/07/20 03:13:19;;;;;;;4.10;3.70;;;15.50;99.90;;;;;;5032327;28;20438;-72
2023/07/20 03:15:48;;;;;;;3.63;3.30;;;15.50;99.90;;;;;;5032054;28;20663;-72
2023/07/20 03:18:17;;;;;;;4.17;3.87;;;15.50;99.90;;;;;;5032580;28;20424;-72
2023/07/20 03:20:46;;;;;;;3.87;3.57;;;15.50;99.90;;;;;;5033636;28;20451;-72
2023/07/20 03:23:14;;;;;;;4.30;3.90;;;15.50;99.90;;;;;;5032402;28;20429;-72
2023/07/20 03:25:43;;;;;;;3.90;3.60;;;15.50;99.90;;;;;;5032476;28;20447;-72
2023/07/20 03:28:11;;;;;;;4.60;4.20;;;15.50;99.90;;;;;;5033152;28;20451;-72
2023/07/20 03:30:39;;;;;;;4.47;4.03;;;15.50;99.90;;;;;;5032248;28;20961;-72
2023/07/20 03:33:09;;;;;;;5.07;4.67;;;15.50;99.90;;;;;;5032210;28;20529;-72
2023/07/20 03:35:37;;;;;;;5.00;4.50;;;15.50;99.90;;;;;;5034041;28;20902;-72
2023/07/20 03:38:06;;;;;;;4.77;4.20;;;15.50;99.90;;;;;;5032234;28;20418;-72
2023/07/20 03:40:34;;;;;;;4.80;4.37;;;15.50;99.90;;;;;;5032087;28;20438;-72
2023/07/20 03:43:03;;;;;;;5.20;4.80;;;15.50;99.90;;;;;;5033057;28;20418;-72
2023/07/20 03:45:31;;;;;;;4.97;4.57;;;15.50;99.90;;;;;;5033989;28;20435;-72
2023/07/20 03:47:59;;;;;;;5.23;4.47;;;15.50;99.90;;;;;;5032099;28;20837;-72
2023/07/20 03:50:29;;;;;;;5.97;5.47;;;15.50;99.90;;;;;;5033381;28;20993;-72
2023/07/20 03:52:57;;;;;;;5.00;4.70;;;15.50;99.90;;;;;;5032043;28;20513;-72
2023/07/20 03:55:26;;;;;;;5.90;5.40;;;15.50;99.90;;;;;;5033578;28;20500;-72
2023/07/20 03:57:54;;;;;;;6.07;5.33;;;15.50;99.90;;;;;;5032011;28;20424;-72
2023/07/20 04:00:22;;;;;;;6.10;5.60;;;15.50;99.90;;;;;;5033206;28;20429;-72
2023/07/20 04:02:50;;;;;;;5.37;4.87;;;15.50;99.90;;;;;;5032039;28;20443;-72
2023/07/20 04:05:19;;;;;;;6.00;5.53;;;15.50;99.90;;;;;;5033432;28;20413;-72
2023/07/20 04:07:48;;;;;;;5.50;5.00;;;15.40;99.90;;;;;;5033291;28;20479;-72
2023/07/20 04:10:16;;;;;;;6.00;5.40;;;15.40;99.90;;;;;;5031720;28;20540;-72
2023/07/20 04:12:46;;;;;;;6.20;5.43;;;15.40;99.90;;;;;;5031885;28;20459;-72
2023/07/20 04:15:15;;;;;;;6.27;5.67;;;15.40;99.90;;;;;;5031914;28;20422;-72
2023/07/20 04:17:43;;;;;;;5.50;5.10;;;15.40;99.90;;;;;;5033075;28;20435;-72
2023/07/20 04:20:11;;;;;;;6.33;5.80;;;15.40;99.90;;;;;;5031739;28;20449;-72
2023/07/20 04:22:40;;;;;;;5.60;5.10;;;15.40;99.90;;;;;;5031784;28;20418;-72
2023/07/20 04:25:12;;;;;;;5.77;5.27;;;15.40;99.90;;;;;;5032473;28;20453;-72
2023/07/20 04:27:41;;;;;;;6.40;5.80;;;15.40;99.90;;;;;;5037265;28;20414;-72
2023/07/20 04:30:11;;;;;;;6.20;5.70;;;15.40;99.90;;;;;;5036157;28;20469;-72
2023/07/20 04:32:43;;;;;;;6.70;6.20;;;15.40;99.90;;;;;;5036398;28;20498;-72
2023/07/20 04:35:18;;;;;;;5.80;5.40;;;15.40;99.90;;;;;;5036984;28;20393;-72
2023/07/20 04:37:48;;;;;;;7.47;5.90;;;15.40;99.90;;;;;;5035845;28;20541;-72
2023/07/20 04:40:21;;;;;;;6.10;5.60;;;15.40;99.90;;;;;;5035541;28;20475;-72
2023/07/20 04:42:49;;;;;;;6.70;6.17;;;15.40;99.90;;;;;;5035491;28;20450;-72
2023/07/20 04:45:19;;;;;;;6.47;6.07;;;15.40;99.90;;;;;;5036728;28;20790;-72
2023/07/20 04:47:47;;;;;;;6.93;6.23;;;15.40;99.90;;;;;;5035482;28;20447;-72
2023/07/20 04:50:15;;;;;;;7.13;6.63;;;15.40;99.90;;;;;;5035246;28;20452;-72
2023/07/20 04:52:46;;;;;;;7.20;6.60;;;15.40;99.90;;;;;;5035252;28;20886;-72
2023/07/20 04:55:18;;;;;;;7.73;7.07;;;15.40;99.90;;;;;;5035314;28;20429;-72
2023/07/20 04:57:47;;;;;;;8.30;7.53;;;15.40;99.90;;;;;;5035202;28;20538;-72
2023/07/20 05:00:17;;;;;;;8.10;7.50;;;15.40;99.90;;;;;;5035185;28;20448;-72
2023/07/20 05:02:47;;;;;;;11.53;7.47;;;15.40;99.90;;;;;;5036807;28;20916;-72
2023/07/20 05:05:16;;;;;;;8.57;6.83;;;15.40;99.90;;;;;;5035302;28;20417;-72
2023/07/20 05:07:44;;;;;;;7.80;7.20;;;15.40;99.90;;;;;;5035051;28;20430;-73
2023/07/20 05:10:13;;;;;;;8.63;7.73;;;15.40;99.90;;;;;;5034948;28;20500;-73
2023/07/20 05:12:42;;;;;;;7.90;7.30;;;15.40;99.90;;;;;;5036071;28;20451;-73
2023/07/20 05:15:12;;;;;;;7.80;7.10;;;15.40;99.90;;;;;;5036327;28;20414;-72
2023/07/20 05:17:42;;;;;;;7.47;6.93;;;15.40;99.90;;;;;;5034879;28;20457;-72
2023/07/20 05:20:12;;;;;;;8.43;7.73;;;15.40;99.90;;;;;;5035887;28;20487;-73
2023/07/20 05:22:41;;;;;;;7.80;7.00;;;15.40;99.90;;;;;;5034723;28;20409;-72
2023/07/20 05:25:10;;;;;;;7.90;7.30;;;15.50;99.90;;;;;;5034567;28;20446;-72
2023/07/20 05:27:39;;;;;;;6.70;6.20;;;15.50;99.90;;;;;;5034531;28;20827;-72
2023/07/20 05:30:08;;;;;;;7.23;6.53;;;15.50;99.90;;;;;;5034692;28;20466;-72
2023/07/20 05:32:37;;;;;;;7.20;6.60;;;15.50;99.90;;;;;;5034432;28;20493;-72
2023/07/20 05:35:07;;;;;;;5.43;4.90;;;15.50;99.90;;;;;;5035592;28;20434;-72
2023/07/20 05:37:35;;;;;;;5.63;5.13;;;15.50;99.90;;;;;;5034919;28;20444;-72
2023/07/20 05:40:04;;;;;;;7.30;5.80;;;15.60;99.90;;;;;;5035810;28;20429;-72
2023/07/20 05:42:32;;;;;;;4.23;3.93;;;15.60;99.90;;;;;;5035791;28;20449;-72
2023/07/20 05:45:00;;;;;;;5.70;4.50;;;15.60;99.90;;;;;;5035555;28;20504;-72
2023/07/20 05:47:29;;;;;;;4.20;3.90;;;15.70;99.90;;;;;;5035582;28;20500;-72
2023/07/20 05:49:58;;;;;;;4.13;3.30;;;15.70;99.90;;;;;;5035947;28;20433;-72
2023/07/20 05:52:26;;;;;;;3.80;3.50;;;15.80;99.90;;;;;;5034240;28;20465;-72
2023/07/20 05:54:54;;;;;;;3.50;3.20;;;15.90;99.90;;;;;;5035441;28;20435;-72
2023/07/20 05:57:23;;;;;;;5.57;2.43;;;16.10;99.90;;;;;;5033997;28;20457;-72
2023/07/20 05:59:51;;;;;;;2.77;2.53;;;16.20;99.90;;;;;;5012430;28;20859;-72
2023/07/20 06:02:19;;;;;;;3.10;2.30;;;16.40;99.90;;;;;;5015203;28;20841;-72
2023/07/20 06:04:47;;;;;;;3.70;2.60;;;16.60;99.90;;;;;;5022752;28;20428;-72
2023/07/20 06:07:16;;;;;;;4.47;2.30;;;16.70;99.90;;;;;;5015223;28;20444;-72
2023/07/20 06:09:45;;;;;;;2.73;2.50;;;16.90;99.90;;;;;;5015033;28;20543;-73
2023/07/20 06:12:13;;;;;;;3.07;2.20;;;17.10;99.90;;;;;;5013436;28;20450;-72
2023/07/20 06:14:41;;;;;;;3.57;2.20;;;17.20;99.90;;;;;;5013818;28;20469;-73
2023/07/20 06:17:09;;;;;;;3.53;1.70;;;17.40;99.90;;;;;;5015334;28;20522;-72
2023/07/20 06:19:37;;;;;;;3.40;1.90;;;17.50;99.90;;;;;;5013672;28;20445;-72
2023/07/20 06:22:06;;;;;;;2.30;1.83;;;17.60;99.90;;;;;;5013710;28;20469;-72
2023/07/20 06:24:35;;;;;;;2.80;1.93;;;17.70;99.90;;;;;;5015669;28;20506;-72
2023/07/20 06:27:05;;;;;;;3.30;2.10;;;17.90;99.90;;;;;;5034945;28;20867;-72
2023/07/20 06:29:34;;;;;;;1.80;1.70;;;17.90;99.90;;;;;;5034556;28;20434;-72
2023/07/20 06:32:02;;;;;;;2.17;1.60;;;18.00;99.90;;;;;;5034548;28;20841;-72
2023/07/20 06:34:30;;;;;;;2.13;1.60;;;18.00;99.90;;;;;;5034475;28;20496;-72
2023/07/20 06:36:58;;;;;;;2.30;1.80;;;18.20;99.90;;;;;;5033803;28;20525;-72
2023/07/20 06:39:26;;;;;;;1.87;1.70;;;18.30;99.90;;;;;;5032959;28;20822;-72
2023/07/20 06:41:59;;;;;;;1.53;1.43;;;18.40;99.90;;;;;;5034271;28;20427;-72
2023/07/20 06:44:27;;;;;;;2.37;1.63;;;18.50;99.90;;;;;;5034234;28;20427;-72
2023/07/20 06:46:55;;;;;;;5.47;2.00;;;18.70;99.90;;;;;;5034447;28;21002;-72
2023/07/20 06:49:27;;;;;;;2.20;1.60;;;18.80;99.90;;;;;;5033914;28;21038;-72
2023/07/20 06:51:55;;;;;;;2.37;1.40;;;18.90;99.90;;;;;;5034033;28;20482;-73
2023/07/20 06:54:24;;;;;;;2.73;1.60;;;19.00;99.90;;;;;;5034209;28;20559;-72
2023/07/20 06:56:52;;;;;;;2.83;1.50;;;19.10;99.90;;;;;;5034013;28;20463;-72
2023/07/20 06:59:25;;;;;;;3.00;1.80;;;19.20;99.90;;;;;;5033964;28;20427;-73
2023/07/20 07:01:53;;;;;;;3.97;1.70;;;19.30;99.90;;;;;;5032637;28;20443;-72
2023/07/20 07:04:21;;;;;;;2.90;1.50;;;19.40;99.90;;;;;;5034248;28;20834;-72
2023/07/20 07:06:49;;;;;;;4.03;1.40;;;19.50;99.90;;;;;;5032775;28;20451;-72
2023/07/20 07:09:17;;;;;;;2.23;1.40;;;19.50;99.90;;;;;;5034220;28;20447;-72
2023/07/20 07:11:45;;;;;;;4.93;1.60;;;19.50;99.90;;;;;;5033856;28;20468;-72
2023/07/20 07:14:14;;;;;;;2.30;1.27;;;19.50;99.90;;;;;;5031932;28;20471;-71
2023/07/20 07:16:43;;;;;;;2.60;1.50;;;19.50;99.90;;;;;;5034273;28;20870;-72
2023/07/20 07:19:11;;;;;;;2.03;1.50;;;19.60;99.90;;;;;;5032397;28;20861;-72
2023/07/20 07:21:39;;;;;;;1.83;1.20;;;19.70;99.90;;;;;;5033712;28;21054;-72
2023/07/20 07:24:09;;;;;;;2.63;1.20;;;19.70;99.90;;;;;;5033720;28;20798;-73
2023/07/20 07:26:38;;;;;;;3.33;1.90;;;19.70;99.90;;;;;;5032367;28;20956;-73
2023/07/20 07:29:06;;;;;;;2.03;1.30;;;19.60;99.90;;;;;;5032535;28;20961;-72
2023/07/20 07:31:35;;;;;;;3.03;1.50;;;19.70;99.90;;;;;;5032428;28;20467;-72
2023/07/20 07:34:05;;;;;;;2.40;1.67;;;19.70;99.90;;;;;;5033533;28;20522;-72
2023/07/20 07:36:34;;;;;;;1.80;1.40;;;19.80;99.90;;;;;;5033756;28;21005;-72
2023/07/20 07:39:02;;;;;;;2.33;1.77;;;19.80;99.90;;;;;;5033123;28;20700;-72
2023/07/20 07:41:50;;;;;;;2.60;1.60;;;19.70;99.90;;;;;;5033665;28;20467;-72
2023/07/20 07:44:19;;;;;;;2.90;1.63;;;19.70;99.90;;;;;;5033749;28;20437;-72
2023/07/20 07:46:47;;;;;;;5.60;1.60;;;19.60;99.90;;;;;;5033401;28;20438;-72
2023/07/20 07:49:16;;;;;;;2.30;1.40;;;19.60;99.90;;;;;;5033491;28;20446;-73
2023/07/20 07:51:44;;;;;;;2.23;1.53;;;19.50;99.90;;;;;;5032027;28;20524;-72
2023/07/20 07:54:12;;;;;;;2.13;1.20;;;19.50;99.90;;;;;;5033439;28;21010;-73
2023/07/20 07:56:41;;;;;;;3.50;1.80;;;19.40;99.90;;;;;;5032162;28;20439;-73
2023/07/20 07:59:09;;;;;;;2.40;1.63;;;19.30;99.90;;;;;;5034212;28;20441;-72
2023/07/20 08:01:37;;;;;;;3.03;1.77;;;19.30;99.90;;;;;;5038718;28;20562;-72
2023/07/20 08:04:05;;;;;;;2.50;1.33;;;19.40;99.90;;;;;;5039714;28;20804;-72
2023/07/20 08:06:35;;;;;;;2.47;1.40;;;19.50;99.90;;;;;;5036106;28;20443;-73
2023/07/20 08:09:03;;;;;;;3.37;1.63;;;19.50;99.90;;;;;;5040221;28;20530;-73
2023/07/20 08:11:33;;;;;;;3.97;1.30;;;19.40;99.90;;;;;;5039995;28;20465;-72
2023/07/20 08:14:01;;;;;;;4.10;1.60;;;19.30;99.90;;;;;;5038736;28;20461;-72
2023/07/20 08:16:29;;;;;;;3.70;1.40;;;19.30;99.90;;;;;;5040185;28;20441;-73
2023/07/20 08:18:58;;;;;;;2.97;1.40;;;19.40;99.90;;;;;;5040254;28;20488;-72
2023/07/20 08:21:26;;;;;;;2.13;1.20;;;19.40;99.90;;;;;;5038968;28;20812;-72
2023/07/20 08:23:56;;;;;;;6.77;1.63;;;19.40;99.90;;;;;;5040171;28;20445;-72
2023/07/20 08:26:24;;;;;;;2.20;1.70;;;19.30;99.90;;;;;;5038647;28;20965;-72
2023/07/20 08:28:54;;;;;;;1.87;1.67;;;19.30;99.90;;;;;;5039898;28;20966;-72
2023/07/20 08:31:22;;;;;;;2.17;1.43;;;19.40;99.90;;;;;;5039763;28;20524;-72
2023/07/20 08:33:50;;;;;;;2.00;1.40;;;19.50;99.90;;;;;;5038481;28;20465;-73
2023/07/20 08:36:18;;;;;;;6.50;2.10;;;19.60;99.90;;;;;;5040043;28;20999;-72
2023/07/20 08:38:47;;;;;;;3.43;2.10;;;19.70;99.90;;;;;;5040572;28;20435;-72
2023/07/20 08:41:17;;;;;;;3.03;1.70;;;19.80;99.90;;;;;;5039990;28;20494;-72
2023/07/20 08:43:47;;;;;;;4.43;2.23;;;19.90;99.90;;;;;;5039703;28;20534;-72
2023/07/20 08:46:16;;;;;;;4.10;1.77;;;19.90;99.90;;;;;;5040121;28;20438;-73
2023/07/20 08:48:45;;;;;;;2.33;1.60;;;19.80;99.90;;;;;;5039477;28;20442;-73
2023/07/20 08:51:14;;;;;;;3.27;1.63;;;19.80;99.90;;;;;;5039443;28;20502;-72
2023/07/20 08:53:43;;;;;;;2.80;1.67;;;19.80;99.90;;;;;;5039510;28;20470;-72
2023/07/20 08:56:12;;;;;;;3.20;1.73;;;19.80;99.90;;;;;;5039430;28;20596;-73
2023/07/20 08:58:44;;;;;;;3.27;1.70;;;19.80;99.90;;;;;;5038122;28;20966;-72
2023/07/20 09:01:13;;;;;;;3.03;1.50;;;19.90;99.90;;;;;;5039503;28;20528;-73
2023/07/20 09:03:43;;;;;;;3.90;2.00;;;20.00;99.90;;;;;;5039630;28;20484;-72
2023/07/20 09:06:11;;;;;;;3.40;1.80;;;20.00;99.90;;;;;;5039939;28;20915;-73
2023/07/20 09:08:40;;;;;;;2.13;1.60;;;20.00;99.90;;;;;;5038082;28;20589;-73
2023/07/20 09:11:08;;;;;;;3.10;1.70;;;20.10;99.90;;;;;;5038856;28;20480;-73
2023/07/20 09:13:38;;;;;;;2.87;1.67;;;20.00;99.90;;;;;;5035910;28;20526;-73
2023/07/20 09:16:08;;;;;;;2.43;2.00;;;20.00;99.90;;;;;;5035279;28;20466;-73
2023/07/20 09:18:36;;;;;;;2.50;1.50;;;19.90;99.90;;;;;;5036835;28;20446;-73
2023/07/20 09:21:06;;;;;;;2.20;1.97;;;19.80;99.90;;;;;;5036716;28;20455;-73
2023/07/20 09:23:35;;;;;;;2.80;1.83;;;19.90;99.90;;;;;;5035949;28;20505;-72
2023/07/20 09:26:11;;;;;;;2.10;1.80;;;19.90;99.90;;;;;;5035866;28;20805;-73
2023/07/20 09:28:43;;;;;;;2.73;1.60;;;20.00;99.90;;;;;;5037399;28;20473;-74
2023/07/20 09:31:18;;;;;;;2.70;1.40;;;20.10;99.90;;;;;;5036578;28;20541;-73
2023/07/20 09:33:48;;;;;;;3.43;1.40;;;20.10;99.90;;;;;;5036901;28;20481;-73
2023/07/20 09:36:19;;;;;;;2.80;1.93;;;20.20;99.90;;;;;;5036784;28;20462;-73
2023/07/20 09:39:07;;;;;;;1.90;1.43;;;20.30;99.90;;;;;;5036897;28;20848;-73
2023/07/20 09:41:43;;;;;;;2.00;1.50;;;20.40;99.90;;;;;;5037008;28;21041;-74
2023/07/20 09:44:15;;;;;;;3.37;1.73;;;20.40;99.90;;;;;;5036968;28;20434;-73
2023/07/20 09:46:49;;;;;;;3.43;2.00;;;20.40;99.90;;;;;;5036619;28;20892;-73
2023/07/20 09:49:20;;;;;;;3.03;1.70;;;20.50;99.90;;;;;;5035264;28;20533;-73
2023/07/20 09:51:53;;;;;;;2.20;2.00;;;20.50;99.90;;;;;;5036206;28;20467;-73
2023/07/20 09:54:23;;;;;;;2.97;1.90;;;20.60;99.90;;;;;;5035354;28;20524;-73
2023/07/20 09:56:52;;;;;;;3.07;2.10;;;20.60;99.90;;;;;;5036314;28;20476;-74
2023/07/20 09:59:20;;;;;;;3.20;2.40;;;20.50;99.90;;;;;;5036381;28;20439;-73
2023/07/20 10:01:52;;;;;;;6.37;2.80;;;20.50;99.90;;;;;;5036261;28;20461;-74
2023/07/20 10:04:22;;;;;;;5.37;3.17;;;20.40;99.90;;;;;;5036813;28;20439;-74
2023/07/20 10:06:53;;;;;;;4.47;2.43;;;20.20;99.90;;;;;;5037315;28;20435;-75
2023/07/20 10:09:23;;;;;;;4.40;3.20;;;19.90;99.90;;;;;;5037849;28;20466;-73
2023/07/20 10:11:51;;;;;;;4.40;3.20;;;19.70;99.90;;;;;;5036667;28;20474;-75
2023/07/20 10:14:44;;;;;;;2.50;2.23;;;19.40;99.90;;;;;;5035829;28;20415;-74
2023/07/20 10:17:18;;;;;;;4.77;2.80;;;19.20;99.90;;;;;;5036124;28;20474;-74
2023/07/20 10:19:50;;;;;;;3.93;2.80;;;19.00;99.90;;;;;;5035835;28;20450;-74
2023/07/20 10:22:26;;;;;;;4.30;3.27;;;18.90;99.90;;;;;;5034416;28;20493;-74
2023/07/20 10:24:57;;;;;;;3.20;2.80;;;18.90;99.90;;;;;;5034286;28;20447;-74
2023/07/20 10:27:27;;;;;;;5.33;3.00;;;18.80;99.90;;;;;;5035745;28;20481;-73
2023/07/20 10:29:57;;;;;;;3.23;2.80;;;18.80;99.90;;;;;;5034475;28;20542;-73
2023/07/20 10:32:26;;;;;;;4.40;2.43;;;18.90;99.90;;;;;;5034342;28;20505;-73
2023/07/20 10:34:57;;;;;;;4.87;3.10;;;18.90;99.90;;;;;;5035459;28;20435;-73
2023/07/20 10:37:47;;;;;;;3.67;2.40;;;19.00;99.90;;;;;;5034818;28;20486;-73
2023/07/20 10:40:26;;;;;;;4.63;2.53;;;19.10;99.90;;;;;;5034367;28;20554;-73
2023/07/20 10:43:01;;;;;;;4.03;2.70;;;19.10;99.90;;;;;;5034661;28;20449;-73
2023/07/20 10:45:42;;;;;;;3.07;2.33;;;19.10;99.90;;;;;;5034660;28;20411;-72
2023/07/20 10:48:16;;;;;;;4.53;2.60;;;19.20;99.90;;;;;;5034914;28;20433;-72
2023/07/20 10:50:45;;;;;;;3.07;2.40;;;19.20;99.90;;;;;;5034415;28;20820;-73
2023/07/20 10:53:15;;;;;;;5.47;2.47;;;19.20;99.90;;;;;;5034671;28;20883;-73
2023/07/20 10:55:44;;;;;;;4.00;2.40;;;19.20;99.90;;;;;;5034587;28;20459;-73
2023/07/20 10:58:14;;;;;;;2.90;2.23;;;19.20;99.90;;;;;;5034343;28;20805;-73
2023/07/20 11:00:59;;;;;;;3.63;2.20;;;19.30;99.90;;;;;;5032813;28;20503;-72
2023/07/20 11:03:30;;;;;;;4.03;2.60;;;19.30;99.90;;;;;;5034406;28;20454;-72
2023/07/20 11:06:37;;;;;;;4.20;2.40;;;19.40;99.90;;;;;;5034008;28;20526;-72
2023/07/20 11:09:14;;;;;;;2.83;2.40;;;19.50;99.90;;;;;;5034651;28;20418;-72
2023/07/20 11:11:43;;;;;;;3.80;2.43;;;19.60;99.90;;;;;;5033826;28;20572;-72
2023/07/20 11:14:20;;;;;;;4.97;2.77;;;19.70;99.90;;;;;;5033880;28;20435;-72
2023/07/20 11:16:50;;;;;;;3.30;2.40;;;19.70;99.90;;;;;;5033816;28;20458;-72
2023/07/20 11:19:23;;;;;;;4.50;3.03;;;19.80;99.90;;;;;;5033793;28;20475;-73
2023/07/20 11:21:56;;;;;;;4.07;2.40;;;19.80;99.90;;;;;;5032607;28;20514;-72
2023/07/20 11:24:32;;;;;;;3.10;2.20;;;19.90;99.90;;;;;;5034116;28;20419;-72
2023/07/20 11:27:02;;;;;;;4.10;2.40;;;19.90;99.90;;;;;;5033749;28;20871;-72
2023/07/20 11:29:30;;;;;;;3.00;2.33;;;20.00;99.90;;;;;;5034095;28;20498;-72
2023/07/20 11:32:02;;;;;;;3.30;2.20;;;20.00;99.90;;;;;;5033957;28;20455;-72
2023/07/20 11:34:36;;;;;;;3.70;2.73;;;20.10;99.90;;;;;;5033474;28;20424;-72
2023/07/20 11:37:06;;;;;;;5.53;2.00;;;20.20;99.90;;;;;;5033953;28;20494;-72
2023/07/20 11:39:37;;;;;;;3.13;2.20;;;20.30;99.90;;;;;;5033587;28;20518;-73
2023/07/20 11:42:06;;;;;;;5.00;1.77;;;20.40;99.90;;;;;;5032339;28;20490;-73
2023/07/20 11:44:34;;;;;;;3.00;2.00;;;20.40;99.90;;;;;;5033572;28;20467;-73
2023/07/20 11:47:04;;;;;;;4.20;1.90;;;20.50;99.90;;;;;;5033522;28;20439;-72
2023/07/20 11:49:37;;;;;;;4.70;1.80;;;20.50;99.90;;;;;;5033516;28;20793;-72
2023/07/20 11:52:07;;;;;;;2.67;1.80;;;20.50;99.90;;;;;;5033733;28;20952;-72
2023/07/20 11:54:36;;;;;;;3.60;2.03;;;20.40;99.90;;;;;;5033657;28;20795;-72
2023/07/20 11:57:05;;;;;;;3.10;1.43;;;20.40;99.90;;;;;;5033415;28;20558;-73
2023/07/20 11:59:34;;;;;;;2.63;1.50;;;20.40;99.90;;;;;;5033584;28;20990;-72
2023/07/20 12:02:03;;;;;;;1.93;1.30;;;20.30;99.90;;;;;;5033330;28;20442;-73
2023/07/20 12:04:32;;;;;;;2.43;1.43;;;20.30;99.90;;;;;;5033588;28;20433;-73
2023/07/20 12:07:02;;;;;;;2.93;1.80;;;20.20;99.90;;;;;;5033383;28;20796;-72
2023/07/20 12:09:30;;;;;;;2.57;1.30;;;20.10;99.90;;;;;;5033339;28;20431;-73
2023/07/20 12:12:20;;;;;;;2.20;1.20;;;20.10;99.90;;;;;;5033580;28;20431;-73
2023/07/20 12:14:48;;;;;;;3.00;1.43;;;20.20;99.90;;;;;;5033813;28;20473;-72
2023/07/20 12:17:17;;;;;;;3.27;1.40;;;20.10;99.90;;;;;;5033203;28;21007;-72
2023/07/20 12:19:45;;;;;;;2.50;1.70;;;20.20;99.90;;;;;;5031925;28;20450;-72
2023/07/20 12:22:15;;;;;;;2.00;1.20;;;20.20;99.90;;;;;;5033904;28;20812;-72
2023/07/20 12:24:43;;;;;;;2.73;2.03;;;20.20;99.90;;;;;;5033394;28;20438;-72
2023/07/20 12:27:16;;;;;;;3.30;1.57;;;20.10;99.90;;;;;;5033216;28;20431;-72
2023/07/20 12:29:46;;;;;;;4.47;1.50;;;20.00;99.90;;;;;;5033554;28;20419;-72
2023/07/20 12:32:14;;;;;;;3.47;1.50;;;19.90;99.90;;;;;;5033184;28;20535;-72
2023/07/20 12:34:42;;;;;;;2.63;1.70;;;19.90;99.90;;;;;;5031842;28;21034;-72
2023/07/20 12:37:10;;;;;;;2.63;1.50;;;20.00;99.90;;;;;;5033153;28;20541;-73
2023/07/20 12:39:44;;;;;;;2.20;1.60;;;20.00;99.90;;;;;;5033353;28;20442;-72
2023/07/20 12:42:14;;;;;;;2.80;1.80;;;20.10;99.90;;;;;;5033042;28;20763;-73
2023/07/20 12:44:45;;;;;;;5.17;1.80;;;20.10;99.90;;;;;;5031733;28;20913;-72
2023/07/20 12:47:13;;;;;;;3.50;1.80;;;20.00;99.90;;;;;;5033747;28;20932;-73
2023/07/20 12:49:45;;;;;;;1.80;1.50;;;20.00;99.90;;;;;;5037021;28;20488;-72
2023/07/20 12:52:13;;;;;;;2.00;1.10;;;19.90;99.90;;;;;;5036997;28;20842;-73
2023/07/20 12:54:43;;;;;;;5.33;1.80;;;19.80;99.90;;;;;;5036600;28;20518;-73
2023/07/20 12:57:11;;;;;;;2.27;1.30;;;19.80;99.90;;;;;;5036972;28;20463;-72
2023/07/20 12:59:40;;;;;;;2.90;1.83;;;19.70;99.90;;;;;;5036905;28;20449;-73
2023/07/20 13:02:08;;;;;;;3.53;1.30;;;19.60;99.90;;;;;;5036451;28;21019;-73